Edmonton International Airport
CYEG : now visible

Airfield :











YOU CAN JOIN US ON...

 
LOGIN :

Register | Disclaimer

   EN    FR    IT 

 









Legend :    VFR   Marginal VFR   IFR   Intensive IFR   Very Intensive IFR
Visi :
Ceiling :
>= 8 km
>= 3000ft
5 to 8 km
1000 to 3000 ft
1500m to 5 km
500 to 1000 ft
800 to 1500m
200 to 500 ft
< 800m
< 200 ft
Symbols :   Thunderstorms  Fog  Heavy snow  Heavy precipitations  Wind > 20 kt






- Airport Elevation : 2373 ft
- IATA code : YEG


CYEG - Edmonton International

CURRENT METAR :
  • 280700Z 27010KT 20SM BKN150 BKN220 04/M04 A2991 RMK AC5CI2 SLP151

EXPIRED METARs :
  • 280600Z 27006KT 20SM FEW110 BKN200 01/M05 A2989 RMK AC1CI6 SLP148
  • 280500Z 27008KT 20SM FEW200 03/M05 A2987 RMK CI1 CI TR SLP140

TAF TAF CYEG
Valid from the 28 at 06:00 until the 29 at 06:00 UTC


280543Z 2806/2906 24008KT P6SM FEW200
BECMG 2812/2814 VRB03KT
FM281600 20008KT P6SM SCT220
FM282100 16010KT P6SM FEW060 BKN140 BKN240
BECMG 2822/2824 BKN060 BKN120
FM290400 VRB03KT P6SM BKN070 BKN140 OVC180 RMK NXT FCST BY 280900Z
CZEG FIR / North America



MET'MAP, your aeronautical weather chart ! - Copyright ORBIFLY December 2007 - Disclaimer

ORBIFLY MET'MAP TEAM :

Programming & Development : Alexandra Zaïnal
Concept & original design : Baudouin d'Aumeries
Assistance for programming : Marc-Olivier Méhu
Technical & hardware support : Manuel Goepfert

Contact : metmap@orbifly.com




SOURCES & CREDITS :

   NOAA       Earth
Advisory